sensor_id;sensor_type;location;lat;lon;timestamp;temperature;humidity
57833;DHT22;43667;53.036;6.740;2022-11-03T00:01:05;10.70;99.90
57833;DHT22;43667;53.036;6.740;2022-11-03T00:03:30;10.70;99.90
57833;DHT22;43667;53.036;6.740;2022-11-03T00:05:56;10.70;99.90
57833;DHT22;43667;53.036;6.740;2022-11-03T00:08:39;10.70;99.90
57833;DHT22;43667;53.036;6.740;2022-11-03T00:11:08;10.70;99.90
57833;DHT22;43667;53.036;6.740;2022-11-03T00:13:34;10.70;99.90
57833;DHT22;43667;53.036;6.740;2022-11-03T00:16:00;10.70;99.90
57833;DHT22;43667;53.036;6.740;2022-11-03T00:18:26;10.80;99.90
57833;DHT22;43667;53.036;6.740;2022-11-03T00:20:59;10.80;99.90
57833;DHT22;43667;53.036;6.740;2022-11-03T00:23:30;10.80;99.90
57833;DHT22;43667;53.036;6.740;2022-11-03T00:26:16;10.80;99.90
57833;DHT22;43667;53.036;6.740;2022-11-03T00:28:47;10.80;99.90
57833;DHT22;43667;53.036;6.740;2022-11-03T00:31:18;10.70;99.90
57833;DHT22;43667;53.036;6.740;2022-11-03T00:33:44;10.80;99.90
57833;DHT22;43667;53.036;6.740;2022-11-03T00:36:13;10.70;99.90
57833;DHT22;43667;53.036;6.740;2022-11-03T00:38:39;10.70;99.90
57833;DHT22;43667;53.036;6.740;2022-11-03T00:41:05;10.70;99.90
57833;DHT22;43667;53.036;6.740;2022-11-03T00:43:33;10.80;99.90
57833;DHT22;43667;53.036;6.740;2022-11-03T00:46:00;10.80;99.90
57833;DHT22;43667;53.036;6.740;2022-11-03T00:48:26;10.70;99.90
57833;DHT22;43667;53.036;6.740;2022-11-03T00:51:11;10.70;99.90
57833;DHT22;43667;53.036;6.740;2022-11-03T00:53:38;10.70;99.90
57833;DHT22;43667;53.036;6.740;2022-11-03T00:56:05;10.70;99.90
57833;DHT22;43667;53.036;6.740;2022-11-03T00:58:31;10.60;99.90
57833;DHT22;43667;53.036;6.740;2022-11-03T01:00:59;10.60;99.90
57833;DHT22;43667;53.036;6.740;2022-11-03T01:03:25;10.60;99.90
57833;DHT22;43667;53.036;6.740;2022-11-03T01:05:50;10.60;99.90
57833;DHT22;43667;53.036;6.740;2022-11-03T01:08:35;10.60;99.90
57833;DHT22;43667;53.036;6.740;2022-11-03T01:11:16;10.50;99.90
57833;DHT22;43667;53.036;6.740;2022-11-03T01:14:01;10.50;99.90
57833;DHT22;43667;53.036;6.740;2022-11-03T01:16:28;10.50;99.90
57833;DHT22;43667;53.036;6.740;2022-11-03T01:18:54;10.40;99.90
57833;DHT22;43667;53.036;6.740;2022-11-03T01:21:20;10.40;99.90
57833;DHT22;43667;53.036;6.740;2022-11-03T01:23:46;10.40;99.90
57833;DHT22;43667;53.036;6.740;2022-11-03T01:26:12;10.40;99.90
57833;DHT22;43667;53.036;6.740;2022-11-03T01:28:41;10.30;99.90
57833;DHT22;43667;53.036;6.740;2022-11-03T01:31:13;10.30;99.90
57833;DHT22;43667;53.036;6.740;2022-11-03T01:33:39;10.30;99.90
57833;DHT22;43667;53.036;6.740;2022-11-03T01:36:05;10.30;99.90
57833;DHT22;43667;53.036;6.740;2022-11-03T01:38:32;10.30;99.90
57833;DHT22;43667;53.036;6.740;2022-11-03T01:40:59;10.30;99.90
57833;DHT22;43667;53.036;6.740;2022-11-03T01:43:25;10.30;99.90
57833;DHT22;43667;53.036;6.740;2022-11-03T01:46:01;10.30;99.90
57833;DHT22;43667;53.036;6.740;2022-11-03T01:48:28;10.30;99.90
57833;DHT22;43667;53.036;6.740;2022-11-03T01:50:55;10.30;99.90
57833;DHT22;43667;53.036;6.740;2022-11-03T01:53:21;10.30;99.90
57833;DHT22;43667;53.036;6.740;2022-11-03T01:55:48;10.30;99.90
57833;DHT22;43667;53.036;6.740;2022-11-03T02:00:45;10.30;99.90
57833;DHT22;43667;53.036;6.740;2022-11-03T02:03:13;10.30;99.90
57833;DHT22;43667;53.036;6.740;2022-11-03T02:05:40;10.30;99.90
57833;DHT22;43667;53.036;6.740;2022-11-03T02:08:22;10.30;99.90
57833;DHT22;43667;53.036;6.740;2022-11-03T02:10:50;10.30;99.90
57833;DHT22;43667;53.036;6.740;2022-11-03T02:13:22;10.20;99.90
57833;DHT22;43667;53.036;6.740;2022-11-03T02:15:49;10.20;99.90
57833;DHT22;43667;53.036;6.740;2022-11-03T02:18:18;10.20;99.90
57833;DHT22;43667;53.036;6.740;2022-11-03T02:20:48;10.20;99.90
57833;DHT22;43667;53.036;6.740;2022-11-03T02:23:25;10.20;99.90
57833;DHT22;43667;53.036;6.740;2022-11-03T02:25:52;10.20;99.90
57833;DHT22;43667;53.036;6.740;2022-11-03T02:28:21;10.20;99.90
57833;DHT22;43667;53.036;6.740;2022-11-03T02:33:28;10.20;99.90
57833;DHT22;43667;53.036;6.740;2022-11-03T02:36:05;10.30;99.90
57833;DHT22;43667;53.036;6.740;2022-11-03T02:38:32;10.30;99.90
57833;DHT22;43667;53.036;6.740;2022-11-03T02:41:02;10.30;99.90
57833;DHT22;43667;53.036;6.740;2022-11-03T02:43:29;10.30;99.90
57833;DHT22;43667;53.036;6.740;2022-11-03T02:45:55;10.30;99.90
57833;DHT22;43667;53.036;6.740;2022-11-03T02:48:22;10.30;99.90
57833;DHT22;43667;53.036;6.740;2022-11-03T02:50:47;10.30;99.90
57833;DHT22;43667;53.036;6.740;2022-11-03T02:53:14;10.30;99.90
57833;DHT22;43667;53.036;6.740;2022-11-03T02:58:34;10.30;99.90
57833;DHT22;43667;53.036;6.740;2022-11-03T03:03:37;10.30;99.90
57833;DHT22;43667;53.036;6.740;2022-11-03T03:06:09;10.40;99.90
57833;DHT22;43667;53.036;6.740;2022-11-03T03:08:40;10.40;99.90
57833;DHT22;43667;53.036;6.740;2022-11-03T03:11:10;10.40;99.90
57833;DHT22;43667;53.036;6.740;2022-11-03T03:13:36;10.40;99.90
57833;DHT22;43667;53.036;6.740;2022-11-03T03:16:16;10.40;99.90
57833;DHT22;43667;53.036;6.740;2022-11-03T03:21:31;10.40;99.90
57833;DHT22;43667;53.036;6.740;2022-11-03T03:24:03;10.40;99.90
57833;DHT22;43667;53.036;6.740;2022-11-03T03:26:36;10.40;99.90
57833;DHT22;43667;53.036;6.740;2022-11-03T03:29:07;10.40;99.90
57833;DHT22;43667;53.036;6.740;2022-11-03T03:31:36;10.50;99.90
57833;DHT22;43667;53.036;6.740;2022-11-03T03:34:03;10.40;99.90
57833;DHT22;43667;53.036;6.740;2022-11-03T03:36:30;10.50;99.90
57833;DHT22;43667;53.036;6.740;2022-11-03T03:39:00;10.50;99.90
57833;DHT22;43667;53.036;6.740;2022-11-03T03:41:28;10.60;99.90
57833;DHT22;43667;53.036;6.740;2022-11-03T03:43:59;10.50;99.90
57833;DHT22;43667;53.036;6.740;2022-11-03T03:46:33;10.50;99.90
57833;DHT22;43667;53.036;6.740;2022-11-03T03:49:01;10.60;99.90
57833;DHT22;43667;53.036;6.740;2022-11-03T03:51:27;10.50;99.90
57833;DHT22;43667;53.036;6.740;2022-11-03T03:53:54;10.60;99.90
57833;DHT22;43667;53.036;6.740;2022-11-03T03:56:26;10.50;99.90
57833;DHT22;43667;53.036;6.740;2022-11-03T03:58:53;10.50;99.90
57833;DHT22;43667;53.036;6.740;2022-11-03T04:01:19;10.50;99.90
57833;DHT22;43667;53.036;6.740;2022-11-03T04:03:44;10.50;99.90
57833;DHT22;43667;53.036;6.740;2022-11-03T04:06:10;10.50;99.90
57833;DHT22;43667;53.036;6.740;2022-11-03T04:08:35;10.50;99.90
57833;DHT22;43667;53.036;6.740;2022-11-03T04:11:02;10.50;99.90
57833;DHT22;43667;53.036;6.740;2022-11-03T04:13:46;10.50;99.90
57833;DHT22;43667;53.036;6.740;2022-11-03T04:16:30;10.40;99.90
57833;DHT22;43667;53.036;6.740;2022-11-03T04:19:14;10.40;99.90
57833;DHT22;43667;53.036;6.740;2022-11-03T04:21:58;10.40;99.90
57833;DHT22;43667;53.036;6.740;2022-11-03T04:24:44;10.40;99.90
57833;DHT22;43667;53.036;6.740;2022-11-03T04:30:20;10.40;99.90
57833;DHT22;43667;53.036;6.740;2022-11-03T04:32:49;10.30;99.90
57833;DHT22;43667;53.036;6.740;2022-11-03T04:35:21;10.30;99.90
57833;DHT22;43667;53.036;6.740;2022-11-03T04:37:50;10.30;99.90
57833;DHT22;43667;53.036;6.740;2022-11-03T04:40:18;10.30;99.90
57833;DHT22;43667;53.036;6.740;2022-11-03T04:42:44;10.30;99.90
57833;DHT22;43667;53.036;6.740;2022-11-03T04:45:30;10.30;99.90
57833;DHT22;43667;53.036;6.740;2022-11-03T04:47:58;10.20;99.90
57833;DHT22;43667;53.036;6.740;2022-11-03T04:50:24;10.20;99.90
57833;DHT22;43667;53.036;6.740;2022-11-03T04:52:55;10.20;99.90
57833;DHT22;43667;53.036;6.740;2022-11-03T04:55:21;10.20;99.90
57833;DHT22;43667;53.036;6.740;2022-11-03T04:57:47;10.10;99.90
57833;DHT22;43667;53.036;6.740;2022-11-03T05:00:18;10.20;99.90
57833;DHT22;43667;53.036;6.740;2022-11-03T05:02:45;10.20;99.90
57833;DHT22;43667;53.036;6.740;2022-11-03T05:05:21;10.20;99.90
57833;DHT22;43667;53.036;6.740;2022-11-03T05:07:48;10.20;99.90
57833;DHT22;43667;53.036;6.740;2022-11-03T05:10:17;10.10;99.90
57833;DHT22;43667;53.036;6.740;2022-11-03T05:12:44;10.10;99.90
57833;DHT22;43667;53.036;6.740;2022-11-03T05:17:58;10.10;99.90
57833;DHT22;43667;53.036;6.740;2022-11-03T05:20:31;10.10;99.90
57833;DHT22;43667;53.036;6.740;2022-11-03T05:22:59;10.00;99.90
57833;DHT22;43667;53.036;6.740;2022-11-03T05:25:38;10.00;99.90
57833;DHT22;43667;53.036;6.740;2022-11-03T05:28:36;10.00;99.90
57833;DHT22;43667;53.036;6.740;2022-11-03T05:31:25;10.00;99.90
57833;DHT22;43667;53.036;6.740;2022-11-03T05:33:54;9.90;99.90
57833;DHT22;43667;53.036;6.740;2022-11-03T05:36:23;9.90;99.90
57833;DHT22;43667;53.036;6.740;2022-11-03T05:38:50;9.90;99.90
57833;DHT22;43667;53.036;6.740;2022-11-03T05:41:26;9.90;99.90
57833;DHT22;43667;53.036;6.740;2022-11-03T05:43:56;9.90;99.90
57833;DHT22;43667;53.036;6.740;2022-11-03T05:46:26;9.90;99.90
57833;DHT22;43667;53.036;6.740;2022-11-03T05:48:53;9.90;99.90
57833;DHT22;43667;53.036;6.740;2022-11-03T05:51:24;9.90;99.90
57833;DHT22;43667;53.036;6.740;2022-11-03T05:53:54;9.90;99.90
57833;DHT22;43667;53.036;6.740;2022-11-03T05:56:23;9.90;99.90
57833;DHT22;43667;53.036;6.740;2022-11-03T05:58:51;9.90;99.90
57833;DHT22;43667;53.036;6.740;2022-11-03T06:03:43;10.00;99.90
57833;DHT22;43667;53.036;6.740;2022-11-03T06:06:22;9.90;99.90
57833;DHT22;43667;53.036;6.740;2022-11-03T06:08:49;10.00;99.90
57833;DHT22;43667;53.036;6.740;2022-11-03T06:11:35;10.00;99.90
57833;DHT22;43667;53.036;6.740;2022-11-03T06:14:18;9.90;99.90
57833;DHT22;43667;53.036;6.740;2022-11-03T06:17:00;9.90;99.90
57833;DHT22;43667;53.036;6.740;2022-11-03T06:19:38;9.90;99.90
57833;DHT22;43667;53.036;6.740;2022-11-03T06:22:20;9.90;99.90
57833;DHT22;43667;53.036;6.740;2022-11-03T06:24:47;9.90;99.90
57833;DHT22;43667;53.036;6.740;2022-11-03T06:27:20;9.80;99.90
57833;DHT22;43667;53.036;6.740;2022-11-03T06:29:49;9.80;99.90
57833;DHT22;43667;53.036;6.740;2022-11-03T06:32:14;9.80;99.90
57833;DHT22;43667;53.036;6.740;2022-11-03T06:34:51;9.80;99.90
57833;DHT22;43667;53.036;6.740;2022-11-03T06:37:31;9.80;99.90
57833;DHT22;43667;53.036;6.740;2022-11-03T06:39:59;9.80;99.90
57833;DHT22;43667;53.036;6.740;2022-11-03T06:42:28;9.80;99.90
57833;DHT22;43667;53.036;6.740;2022-11-03T06:44:56;9.90;99.90
57833;DHT22;43667;53.036;6.740;2022-11-03T06:47:24;9.90;99.90
57833;DHT22;43667;53.036;6.740;2022-11-03T06:49:52;9.90;99.90
57833;DHT22;43667;53.036;6.740;2022-11-03T06:52:38;9.90;99.90
57833;DHT22;43667;53.036;6.740;2022-11-03T06:57:36;10.00;99.90
57833;DHT22;43667;53.036;6.740;2022-11-03T07:00:19;10.00;99.90
57833;DHT22;43667;53.036;6.740;2022-11-03T07:05:26;10.10;99.90
57833;DHT22;43667;53.036;6.740;2022-11-03T07:07:55;10.10;99.90
57833;DHT22;43667;53.036;6.740;2022-11-03T07:10:40;10.10;99.90
57833;DHT22;43667;53.036;6.740;2022-11-03T07:13:15;10.30;99.90
57833;DHT22;43667;53.036;6.740;2022-11-03T07:15:43;10.30;99.90
57833;DHT22;43667;53.036;6.740;2022-11-03T07:18:22;10.30;99.90
57833;DHT22;43667;53.036;6.740;2022-11-03T07:20:48;10.40;99.90
57833;DHT22;43667;53.036;6.740;2022-11-03T07:23:19;10.40;99.90
57833;DHT22;43667;53.036;6.740;2022-11-03T07:25:51;10.50;99.90
57833;DHT22;43667;53.036;6.740;2022-11-03T07:28:20;10.50;99.90
57833;DHT22;43667;53.036;6.740;2022-11-03T07:30:46;10.50;99.90
57833;DHT22;43667;53.036;6.740;2022-11-03T07:33:15;10.60;99.90
57833;DHT22;43667;53.036;6.740;2022-11-03T07:35:43;10.60;99.90
57833;DHT22;43667;53.036;6.740;2022-11-03T07:38:15;10.70;99.90
57833;DHT22;43667;53.036;6.740;2022-11-03T07:40:42;10.70;99.90
57833;DHT22;43667;53.036;6.740;2022-11-03T07:43:17;10.80;99.90
57833;DHT22;43667;53.036;6.740;2022-11-03T07:45:51;10.80;99.90
57833;DHT22;43667;53.036;6.740;2022-11-03T07:48:26;10.90;99.90
57833;DHT22;43667;53.036;6.740;2022-11-03T07:50:55;10.90;99.90
57833;DHT22;43667;53.036;6.740;2022-11-03T07:53:47;11.00;99.90
57833;DHT22;43667;53.036;6.740;2022-11-03T07:56:23;11.00;99.90
57833;DHT22;43667;53.036;6.740;2022-11-03T07:59:02;11.00;99.90
57833;DHT22;43667;53.036;6.740;2022-11-03T08:01:30;11.20;99.90
57833;DHT22;43667;53.036;6.740;2022-11-03T08:04:03;11.10;99.90
57833;DHT22;43667;53.036;6.740;2022-11-03T08:06:30;11.20;99.90
57833;DHT22;43667;53.036;6.740;2022-11-03T08:08:56;11.30;99.90
57833;DHT22;43667;53.036;6.740;2022-11-03T08:11:22;11.30;99.90
57833;DHT22;43667;53.036;6.740;2022-11-03T08:13:49;11.40;99.90
57833;DHT22;43667;53.036;6.740;2022-11-03T08:16:15;11.40;99.90
57833;DHT22;43667;53.036;6.740;2022-11-03T08:18:40;11.50;99.90
57833;DHT22;43667;53.036;6.740;2022-11-03T08:21:06;11.60;99.90
57833;DHT22;43667;53.036;6.740;2022-11-03T08:23:31;11.70;99.90
57833;DHT22;43667;53.036;6.740;2022-11-03T08:25:57;11.70;99.90
57833;DHT22;43667;53.036;6.740;2022-11-03T08:28:23;11.80;99.90
57833;DHT22;43667;53.036;6.740;2022-11-03T08:30:49;11.90;99.90
57833;DHT22;43667;53.036;6.740;2022-11-03T08:33:14;12.00;99.90
57833;DHT22;43667;53.036;6.740;2022-11-03T08:35:40;12.00;99.90
57833;DHT22;43667;53.036;6.740;2022-11-03T08:38:06;12.10;99.90
57833;DHT22;43667;53.036;6.740;2022-11-03T08:40:31;12.10;99.90
57833;DHT22;43667;53.036;6.740;2022-11-03T08:42:57;12.20;99.90
57833;DHT22;43667;53.036;6.740;2022-11-03T08:45:22;12.20;99.90
57833;DHT22;43667;53.036;6.740;2022-11-03T08:47:48;12.20;99.90
57833;DHT22;43667;53.036;6.740;2022-11-03T08:50:14;12.20;99.90
57833;DHT22;43667;53.036;6.740;2022-11-03T08:52:40;12.30;99.90
57833;DHT22;43667;53.036;6.740;2022-11-03T08:55:06;12.30;99.90
57833;DHT22;43667;53.036;6.740;2022-11-03T08:57:31;12.30;99.90
57833;DHT22;43667;53.036;6.740;2022-11-03T08:59:57;12.30;99.90
57833;DHT22;43667;53.036;6.740;2022-11-03T09:02:23;12.40;99.90
57833;DHT22;43667;53.036;6.740;2022-11-03T09:04:48;12.40;99.90
57833;DHT22;43667;53.036;6.740;2022-11-03T09:07:14;12.50;99.90
57833;DHT22;43667;53.036;6.740;2022-11-03T09:09:39;12.50;99.90
57833;DHT22;43667;53.036;6.740;2022-11-03T09:12:05;12.70;99.90
57833;DHT22;43667;53.036;6.740;2022-11-03T09:14:31;12.70;99.90
57833;DHT22;43667;53.036;6.740;2022-11-03T09:16:56;12.70;99.90
57833;DHT22;43667;53.036;6.740;2022-11-03T09:19:22;12.80;99.90
57833;DHT22;43667;53.036;6.740;2022-11-03T09:21:47;12.90;99.90
57833;DHT22;43667;53.036;6.740;2022-11-03T09:24:13;13.00;99.90
57833;DHT22;43667;53.036;6.740;2022-11-03T09:26:38;13.00;99.90
57833;DHT22;43667;53.036;6.740;2022-11-03T09:29:04;13.00;99.90
57833;DHT22;43667;53.036;6.740;2022-11-03T09:31:30;13.10;99.90
57833;DHT22;43667;53.036;6.740;2022-11-03T09:33:55;13.20;99.90
57833;DHT22;43667;53.036;6.740;2022-11-03T09:36:21;13.20;99.90
57833;DHT22;43667;53.036;6.740;2022-11-03T09:38:46;13.30;99.90
57833;DHT22;43667;53.036;6.740;2022-11-03T09:41:12;13.30;99.90
57833;DHT22;43667;53.036;6.740;2022-11-03T09:43:46;13.40;99.90
57833;DHT22;43667;53.036;6.740;2022-11-03T09:46:12;13.40;99.90
57833;DHT22;43667;53.036;6.740;2022-11-03T09:48:38;13.50;99.90
57833;DHT22;43667;53.036;6.740;2022-11-03T09:51:04;13.60;99.90
57833;DHT22;43667;53.036;6.740;2022-11-03T09:53:31;13.60;99.90
57833;DHT22;43667;53.036;6.740;2022-11-03T09:55:56;13.70;99.90
57833;DHT22;43667;53.036;6.740;2022-11-03T09:58:22;13.80;99.90
57833;DHT22;43667;53.036;6.740;2022-11-03T10:00:47;13.90;99.90
57833;DHT22;43667;53.036;6.740;2022-11-03T10:03:15;14.00;99.90
57833;DHT22;43667;53.036;6.740;2022-11-03T10:05:43;14.10;99.90
57833;DHT22;43667;53.036;6.740;2022-11-03T10:08:25;14.20;99.90
57833;DHT22;43667;53.036;6.740;2022-11-03T10:10:51;14.40;99.90
57833;DHT22;43667;53.036;6.740;2022-11-03T10:13:33;14.50;99.90
57833;DHT22;43667;53.036;6.740;2022-11-03T10:16:01;14.50;99.90
57833;DHT22;43667;53.036;6.740;2022-11-03T10:18:29;14.60;99.90
57833;DHT22;43667;53.036;6.740;2022-11-03T10:20:57;14.60;99.90
57833;DHT22;43667;53.036;6.740;2022-11-03T10:23:25;14.60;99.90
57833;DHT22;43667;53.036;6.740;2022-11-03T10:25:51;14.60;99.90
57833;DHT22;43667;53.036;6.740;2022-11-03T10:28:24;14.70;99.90
57833;DHT22;43667;53.036;6.740;2022-11-03T10:30:59;14.70;99.90
57833;DHT22;43667;53.036;6.740;2022-11-03T10:33:32;14.80;99.90
57833;DHT22;43667;53.036;6.740;2022-11-03T10:35:59;15.00;99.90
57833;DHT22;43667;53.036;6.740;2022-11-03T10:38:33;15.10;99.90
57833;DHT22;43667;53.036;6.740;2022-11-03T10:41:14;15.30;99.90
57833;DHT22;43667;53.036;6.740;2022-11-03T10:44:22;15.60;99.90
57833;DHT22;43667;53.036;6.740;2022-11-03T10:46:30;15.80;99.90
57833;DHT22;43667;53.036;6.740;2022-11-03T10:51:37;16.10;99.90
57833;DHT22;43667;53.036;6.740;2022-11-03T10:55:51;16.10;99.90
57833;DHT22;43667;53.036;6.740;2022-11-03T10:58:16;16.10;99.90
57833;DHT22;43667;53.036;6.740;2022-11-03T11:00:42;16.00;99.90
57833;DHT22;43667;53.036;6.740;2022-11-03T11:03:09;16.00;99.90
57833;DHT22;43667;53.036;6.740;2022-11-03T11:05:43;16.00;99.90
57833;DHT22;43667;53.036;6.740;2022-11-03T11:08:09;16.00;99.90
57833;DHT22;43667;53.036;6.740;2022-11-03T11:10:34;16.00;99.90
57833;DHT22;43667;53.036;6.740;2022-11-03T11:15:51;16.00;99.90
57833;DHT22;43667;53.036;6.740;2022-11-03T11:21:00;16.30;99.90
57833;DHT22;43667;53.036;6.740;2022-11-03T11:28:33;16.80;99.90
57833;DHT22;43667;53.036;6.740;2022-11-03T11:30:59;16.90;99.90
57833;DHT22;43667;53.036;6.740;2022-11-03T11:33:27;17.00;99.90
57833;DHT22;43667;53.036;6.740;2022-11-03T11:52:51;16.50;99.90
57833;DHT22;43667;53.036;6.740;2022-11-03T11:57:51;16.40;99.90
57833;DHT22;43667;53.036;6.740;2022-11-03T12:00:25;16.40;99.90
57833;DHT22;43667;53.036;6.740;2022-11-03T12:02:54;16.40;99.90
57833;DHT22;43667;53.036;6.740;2022-11-03T12:05:22;16.30;99.90
57833;DHT22;43667;53.036;6.740;2022-11-03T12:07:48;16.30;99.90
57833;DHT22;43667;53.036;6.740;2022-11-03T12:10:19;16.30;99.90
57833;DHT22;43667;53.036;6.740;2022-11-03T12:12:47;16.20;99.90
57833;DHT22;43667;53.036;6.740;2022-11-03T12:18:39;16.10;99.90
57833;DHT22;43667;53.036;6.740;2022-11-03T12:21:10;16.10;99.90
57833;DHT22;43667;53.036;6.740;2022-11-03T12:26:51;16.00;99.90
57833;DHT22;43667;53.036;6.740;2022-11-03T12:28:52;15.90;99.90
57833;DHT22;43667;53.036;6.740;2022-11-03T12:31:17;15.80;99.90
57833;DHT22;43667;53.036;6.740;2022-11-03T12:33:43;15.90;99.90
57833;DHT22;43667;53.036;6.740;2022-11-03T12:36:08;15.80;99.90
57833;DHT22;43667;53.036;6.740;2022-11-03T12:38:35;15.70;99.90
57833;DHT22;43667;53.036;6.740;2022-11-03T12:41:01;15.70;99.90
57833;DHT22;43667;53.036;6.740;2022-11-03T12:43:49;15.70;99.90
57833;DHT22;43667;53.036;6.740;2022-11-03T12:46:16;15.70;99.90
57833;DHT22;43667;53.036;6.740;2022-11-03T12:48:42;15.70;99.90
57833;DHT22;43667;53.036;6.740;2022-11-03T12:51:16;15.60;99.90
57833;DHT22;43667;53.036;6.740;2022-11-03T12:53:43;15.60;99.90
57833;DHT22;43667;53.036;6.740;2022-11-03T12:56:10;15.60;99.90
57833;DHT22;43667;53.036;6.740;2022-11-03T12:58:36;15.50;99.90
57833;DHT22;43667;53.036;6.740;2022-11-03T13:01:03;15.50;99.90
57833;DHT22;43667;53.036;6.740;2022-11-03T13:03:29;15.50;99.90
57833;DHT22;43667;53.036;6.740;2022-11-03T13:05:56;15.50;99.90
57833;DHT22;43667;53.036;6.740;2022-11-03T13:08:21;15.50;99.90
57833;DHT22;43667;53.036;6.740;2022-11-03T13:10:47;15.50;99.90
57833;DHT22;43667;53.036;6.740;2022-11-03T13:13:12;15.60;99.90
57833;DHT22;43667;53.036;6.740;2022-11-03T13:15:38;15.60;99.90
57833;DHT22;43667;53.036;6.740;2022-11-03T13:18:04;15.60;99.90
57833;DHT22;43667;53.036;6.740;2022-11-03T13:20:31;15.70;99.90
57833;DHT22;43667;53.036;6.740;2022-11-03T13:22:56;15.70;99.90
57833;DHT22;43667;53.036;6.740;2022-11-03T13:25:22;15.70;99.90
57833;DHT22;43667;53.036;6.740;2022-11-03T13:27:49;15.80;99.90
57833;DHT22;43667;53.036;6.740;2022-11-03T13:30:18;15.80;99.90
57833;DHT22;43667;53.036;6.740;2022-11-03T13:32:44;15.80;99.90
57833;DHT22;43667;53.036;6.740;2022-11-03T13:35:10;15.80;99.90
57833;DHT22;43667;53.036;6.740;2022-11-03T13:37:36;15.80;99.90
57833;DHT22;43667;53.036;6.740;2022-11-03T13:40:04;15.80;99.90
57833;DHT22;43667;53.036;6.740;2022-11-03T13:42:30;15.80;99.90
57833;DHT22;43667;53.036;6.740;2022-11-03T13:44:55;15.80;99.90
57833;DHT22;43667;53.036;6.740;2022-11-03T13:47:22;15.70;99.90
57833;DHT22;43667;53.036;6.740;2022-11-03T13:49:48;15.70;99.90
57833;DHT22;43667;53.036;6.740;2022-11-03T13:52:17;15.70;99.90
57833;DHT22;43667;53.036;6.740;2022-11-03T13:54:43;15.70;99.90
57833;DHT22;43667;53.036;6.740;2022-11-03T13:57:09;15.70;99.90
57833;DHT22;43667;53.036;6.740;2022-11-03T13:59:34;15.70;99.90
57833;DHT22;43667;53.036;6.740;2022-11-03T14:02:00;15.70;99.90
57833;DHT22;43667;53.036;6.740;2022-11-03T14:04:26;15.60;99.90
57833;DHT22;43667;53.036;6.740;2022-11-03T14:06:51;15.60;99.90
57833;DHT22;43667;53.036;6.740;2022-11-03T14:09:17;15.50;99.90
57833;DHT22;43667;53.036;6.740;2022-11-03T14:11:42;15.40;99.90
57833;DHT22;43667;53.036;6.740;2022-11-03T14:14:26;15.40;99.90
57833;DHT22;43667;53.036;6.740;2022-11-03T14:16:52;15.30;99.90
57833;DHT22;43667;53.036;6.740;2022-11-03T14:19:18;15.30;99.90
57833;DHT22;43667;53.036;6.740;2022-11-03T14:21:43;15.20;99.90
57833;DHT22;43667;53.036;6.740;2022-11-03T14:24:09;15.20;99.90
57833;DHT22;43667;53.036;6.740;2022-11-03T14:26:34;15.10;99.90
57833;DHT22;43667;53.036;6.740;2022-11-03T14:29:00;15.10;99.90
57833;DHT22;43667;53.036;6.740;2022-11-03T14:31:25;15.10;99.90
57833;DHT22;43667;53.036;6.740;2022-11-03T14:33:51;15.10;99.90
57833;DHT22;43667;53.036;6.740;2022-11-03T14:36:17;15.10;99.90
57833;DHT22;43667;53.036;6.740;2022-11-03T14:38:42;15.10;99.90
57833;DHT22;43667;53.036;6.740;2022-11-03T14:41:08;15.10;99.90
57833;DHT22;43667;53.036;6.740;2022-11-03T14:43:52;15.00;99.90
57833;DHT22;43667;53.036;6.740;2022-11-03T14:46:17;15.00;99.90
57833;DHT22;43667;53.036;6.740;2022-11-03T14:48:43;15.00;99.90
57833;DHT22;43667;53.036;6.740;2022-11-03T14:51:08;14.90;99.90
57833;DHT22;43667;53.036;6.740;2022-11-03T14:53:34;14.90;99.90
57833;DHT22;43667;53.036;6.740;2022-11-03T14:56:00;14.90;99.90
57833;DHT22;43667;53.036;6.740;2022-11-03T14:58:25;14.90;99.90
57833;DHT22;43667;53.036;6.740;2022-11-03T15:00:51;14.90;99.90
57833;DHT22;43667;53.036;6.740;2022-11-03T15:03:16;14.90;99.90
57833;DHT22;43667;53.036;6.740;2022-11-03T15:05:42;14.80;99.90
57833;DHT22;43667;53.036;6.740;2022-11-03T15:08:15;14.80;99.90
57833;DHT22;43667;53.036;6.740;2022-11-03T15:10:41;14.80;99.90
57833;DHT22;43667;53.036;6.740;2022-11-03T15:13:07;14.70;99.90
57833;DHT22;43667;53.036;6.740;2022-11-03T15:15:33;14.70;99.90
57833;DHT22;43667;53.036;6.740;2022-11-03T15:18:03;14.60;99.90
57833;DHT22;43667;53.036;6.740;2022-11-03T15:20:29;14.60;99.90
57833;DHT22;43667;53.036;6.740;2022-11-03T15:22:55;14.40;99.90
57833;DHT22;43667;53.036;6.740;2022-11-03T15:25:21;14.40;99.90
57833;DHT22;43667;53.036;6.740;2022-11-03T15:27:47;14.30;99.90
57833;DHT22;43667;53.036;6.740;2022-11-03T15:30:12;14.30;99.90
57833;DHT22;43667;53.036;6.740;2022-11-03T15:32:39;14.20;99.90
57833;DHT22;43667;53.036;6.740;2022-11-03T15:35:05;14.10;99.90
57833;DHT22;43667;53.036;6.740;2022-11-03T15:37:31;14.10;99.90
57833;DHT22;43667;53.036;6.740;2022-11-03T15:39:56;14.00;99.90
57833;DHT22;43667;53.036;6.740;2022-11-03T15:42:22;14.00;99.90
57833;DHT22;43667;53.036;6.740;2022-11-03T15:44:47;13.90;99.90
57833;DHT22;43667;53.036;6.740;2022-11-03T15:47:13;13.90;99.90
57833;DHT22;43667;53.036;6.740;2022-11-03T15:49:38;13.90;99.90
57833;DHT22;43667;53.036;6.740;2022-11-03T15:52:04;13.80;99.90
57833;DHT22;43667;53.036;6.740;2022-11-03T15:54:30;13.80;99.90
57833;DHT22;43667;53.036;6.740;2022-11-03T15:56:55;13.70;99.90
57833;DHT22;43667;53.036;6.740;2022-11-03T15:59:21;13.70;99.90
57833;DHT22;43667;53.036;6.740;2022-11-03T16:01:46;13.70;99.90
57833;DHT22;43667;53.036;6.740;2022-11-03T16:04:12;13.70;99.90
57833;DHT22;43667;53.036;6.740;2022-11-03T16:06:38;13.60;99.90
57833;DHT22;43667;53.036;6.740;2022-11-03T16:09:03;13.60;99.90
57833;DHT22;43667;53.036;6.740;2022-11-03T16:11:29;13.50;99.90
57833;DHT22;43667;53.036;6.740;2022-11-03T16:13:54;13.50;99.90
57833;DHT22;43667;53.036;6.740;2022-11-03T16:16:20;13.50;99.90
57833;DHT22;43667;53.036;6.740;2022-11-03T16:18:46;13.50;99.90
57833;DHT22;43667;53.036;6.740;2022-11-03T16:21:12;13.40;99.90
57833;DHT22;43667;53.036;6.740;2022-11-03T16:23:37;13.40;99.90
57833;DHT22;43667;53.036;6.740;2022-11-03T16:26:03;13.40;99.90
57833;DHT22;43667;53.036;6.740;2022-11-03T16:28:30;13.40;99.90
57833;DHT22;43667;53.036;6.740;2022-11-03T16:30:55;13.40;99.90
57833;DHT22;43667;53.036;6.740;2022-11-03T16:33:21;13.40;99.90
57833;DHT22;43667;53.036;6.740;2022-11-03T16:35:47;13.30;99.90
57833;DHT22;43667;53.036;6.740;2022-11-03T16:38:13;13.40;99.90
57833;DHT22;43667;53.036;6.740;2022-11-03T16:40:40;13.30;99.90
57833;DHT22;43667;53.036;6.740;2022-11-03T16:43:05;13.30;99.90
57833;DHT22;43667;53.036;6.740;2022-11-03T16:45:31;13.30;99.90
57833;DHT22;43667;53.036;6.740;2022-11-03T16:47:57;13.30;99.90
57833;DHT22;43667;53.036;6.740;2022-11-03T16:50:23;13.30;99.90